sensor_id;sensor_type;location;lat;lon;timestamp;temperature;humidity
77582;DHT22;66726;52.388;9.986;2023-04-03T00:02:25;3.10;96.60
77582;DHT22;66726;52.388;9.986;2023-04-03T00:04:57;3.10;96.40
77582;DHT22;66726;52.388;9.986;2023-04-03T00:07:29;3.20;96.70
77582;DHT22;66726;52.388;9.986;2023-04-03T00:10:02;3.10;96.60
77582;DHT22;66726;52.388;9.986;2023-04-03T00:12:35;3.00;96.70
77582;DHT22;66726;52.388;9.986;2023-04-03T00:15:08;3.10;96.60
77582;DHT22;66726;52.388;9.986;2023-04-03T00:17:41;3.10;96.70
77582;DHT22;66726;52.388;9.986;2023-04-03T00:20:13;3.10;96.40
77582;DHT22;66726;52.388;9.986;2023-04-03T00:22:44;3.10;96.70
77582;DHT22;66726;52.388;9.986;2023-04-03T00:25:18;3.10;96.60
77582;DHT22;66726;52.388;9.986;2023-04-03T00:27:51;3.10;96.70
77582;DHT22;66726;52.388;9.986;2023-04-03T00:30:23;3.10;96.60
77582;DHT22;66726;52.388;9.986;2023-04-03T00:32:56;3.00;96.60
77582;DHT22;66726;52.388;9.986;2023-04-03T00:35:29;3.00;96.70
77582;DHT22;66726;52.388;9.986;2023-04-03T00:38:01;2.90;96.70
77582;DHT22;66726;52.388;9.986;2023-04-03T00:40:38;2.90;96.80
77582;DHT22;66726;52.388;9.986;2023-04-03T00:43:15;2.90;97.10
77582;DHT22;66726;52.388;9.986;2023-04-03T00:45:49;2.90;97.10
77582;DHT22;66726;52.388;9.986;2023-04-03T00:48:24;2.90;97.10
77582;DHT22;66726;52.388;9.986;2023-04-03T00:51:00;2.90;97.10
77582;DHT22;66726;52.388;9.986;2023-04-03T00:53:38;2.90;97.10
77582;DHT22;66726;52.388;9.986;2023-04-03T00:56:16;2.80;97.00
77582;DHT22;66726;52.388;9.986;2023-04-03T00:58:54;2.80;97.00
77582;DHT22;66726;52.388;9.986;2023-04-03T01:01:29;2.80;97.40
77582;DHT22;66726;52.388;9.986;2023-04-03T01:04:02;2.70;97.40
77582;DHT22;66726;52.388;9.986;2023-04-03T01:06:37;2.70;97.50
77582;DHT22;66726;52.388;9.986;2023-04-03T01:09:08;2.70;97.50
77582;DHT22;66726;52.388;9.986;2023-04-03T01:11:41;2.80;97.70
77582;DHT22;66726;52.388;9.986;2023-04-03T01:14:13;2.60;97.40
77582;DHT22;66726;52.388;9.986;2023-04-03T01:16:52;2.50;97.60
77582;DHT22;66726;52.388;9.986;2023-04-03T01:19:25;2.50;97.80
77582;DHT22;66726;52.388;9.986;2023-04-03T01:22:10;2.50;98.00
77582;DHT22;66726;52.388;9.986;2023-04-03T01:24:49;2.50;98.50
77582;DHT22;66726;52.388;9.986;2023-04-03T01:27:22;2.50;97.90
77582;DHT22;66726;52.388;9.986;2023-04-03T01:29:54;2.40;98.00
77582;DHT22;66726;52.388;9.986;2023-04-03T01:32:27;2.40;98.20
77582;DHT22;66726;52.388;9.986;2023-04-03T01:34:59;2.50;98.10
77582;DHT22;66726;52.388;9.986;2023-04-03T01:37:31;2.40;98.20
77582;DHT22;66726;52.388;9.986;2023-04-03T01:40:03;2.40;98.20
77582;DHT22;66726;52.388;9.986;2023-04-03T01:42:36;2.30;98.30
77582;DHT22;66726;52.388;9.986;2023-04-03T01:45:09;2.30;98.40
77582;DHT22;66726;52.388;9.986;2023-04-03T01:47:42;2.40;98.40
77582;DHT22;66726;52.388;9.986;2023-04-03T01:50:14;2.40;98.30
77582;DHT22;66726;52.388;9.986;2023-04-03T01:52:46;2.40;98.40
77582;DHT22;66726;52.388;9.986;2023-04-03T01:55:18;2.30;98.40
77582;DHT22;66726;52.388;9.986;2023-04-03T01:57:49;2.20;98.30
77582;DHT22;66726;52.388;9.986;2023-04-03T02:00:21;2.30;98.60
77582;DHT22;66726;52.388;9.986;2023-04-03T02:02:54;2.20;98.70
77582;DHT22;66726;52.388;9.986;2023-04-03T02:05:26;2.10;98.50
77582;DHT22;66726;52.388;9.986;2023-04-03T02:07:58;2.00;99.20
77582;DHT22;66726;52.388;9.986;2023-04-03T02:10:30;2.00;98.90
77582;DHT22;66726;52.388;9.986;2023-04-03T02:13:03;2.20;98.70
77582;DHT22;66726;52.388;9.986;2023-04-03T02:15:37;2.10;98.90
77582;DHT22;66726;52.388;9.986;2023-04-03T02:18:10;2.10;98.70
77582;DHT22;66726;52.388;9.986;2023-04-03T02:20:42;2.10;98.80
77582;DHT22;66726;52.388;9.986;2023-04-03T02:23:14;1.90;98.70
77582;DHT22;66726;52.388;9.986;2023-04-03T02:25:45;1.90;99.10
77582;DHT22;66726;52.388;9.986;2023-04-03T02:28:18;1.90;98.80
77582;DHT22;66726;52.388;9.986;2023-04-03T02:30:50;2.00;99.10
77582;DHT22;66726;52.388;9.986;2023-04-03T02:33:23;2.00;99.00
77582;DHT22;66726;52.388;9.986;2023-04-03T02:35:56;1.80;99.10
77582;DHT22;66726;52.388;9.986;2023-04-03T02:38:28;1.70;99.80
77582;DHT22;66726;52.388;9.986;2023-04-03T02:41:02;1.80;99.20
77582;DHT22;66726;52.388;9.986;2023-04-03T02:43:35;1.80;99.10
77582;DHT22;66726;52.388;9.986;2023-04-03T02:46:07;1.90;99.30
77582;DHT22;66726;52.388;9.986;2023-04-03T02:48:40;1.80;99.00
77582;DHT22;66726;52.388;9.986;2023-04-03T02:51:12;1.80;99.60
77582;DHT22;66726;52.388;9.986;2023-04-03T02:53:44;1.70;99.30
77582;DHT22;66726;52.388;9.986;2023-04-03T02:56:16;1.70;99.80
77582;DHT22;66726;52.388;9.986;2023-04-03T02:58:51;1.50;99.50
77582;DHT22;66726;52.388;9.986;2023-04-03T03:01:27;1.50;99.90
77582;DHT22;66726;52.388;9.986;2023-04-03T03:04:02;1.60;99.80
77582;DHT22;66726;52.388;9.986;2023-04-03T03:06:35;1.50;99.80
77582;DHT22;66726;52.388;9.986;2023-04-03T03:09:07;1.50;99.80
77582;DHT22;66726;52.388;9.986;2023-04-03T03:11:38;1.50;99.90
77582;DHT22;66726;52.388;9.986;2023-04-03T03:14:10;1.50;99.90
77582;DHT22;66726;52.388;9.986;2023-04-03T03:16:42;1.50;99.90
77582;DHT22;66726;52.388;9.986;2023-04-03T03:19:15;1.40;99.90
77582;DHT22;66726;52.388;9.986;2023-04-03T03:21:47;1.50;99.90
77582;DHT22;66726;52.388;9.986;2023-04-03T03:24:19;1.50;99.70
77582;DHT22;66726;52.388;9.986;2023-04-03T03:26:51;1.40;99.90
77582;DHT22;66726;52.388;9.986;2023-04-03T03:29:22;1.50;99.90
77582;DHT22;66726;52.388;9.986;2023-04-03T03:31:54;1.40;99.90
77582;DHT22;66726;52.388;9.986;2023-04-03T03:34:27;1.30;99.90
77582;DHT22;66726;52.388;9.986;2023-04-03T03:36:59;1.40;99.90
77582;DHT22;66726;52.388;9.986;2023-04-03T03:39:31;1.30;99.90
77582;DHT22;66726;52.388;9.986;2023-04-03T03:42:03;1.40;99.90
77582;DHT22;66726;52.388;9.986;2023-04-03T03:44:35;1.40;99.90
77582;DHT22;66726;52.388;9.986;2023-04-03T03:47:07;1.50;99.90
77582;DHT22;66726;52.388;9.986;2023-04-03T03:49:40;1.50;99.90
77582;DHT22;66726;52.388;9.986;2023-04-03T03:52:12;1.50;99.90
77582;DHT22;66726;52.388;9.986;2023-04-03T03:54:44;1.40;99.80
77582;DHT22;66726;52.388;9.986;2023-04-03T03:57:17;1.30;99.90
77582;DHT22;66726;52.388;9.986;2023-04-03T03:59:49;1.30;99.90
77582;DHT22;66726;52.388;9.986;2023-04-03T04:02:21;1.20;99.90
77582;DHT22;66726;52.388;9.986;2023-04-03T04:04:54;1.20;99.90
77582;DHT22;66726;52.388;9.986;2023-04-03T04:07:26;1.20;99.90
77582;DHT22;66726;52.388;9.986;2023-04-03T04:09:58;1.20;99.90
77582;DHT22;66726;52.388;9.986;2023-04-03T04:12:30;1.10;99.90
77582;DHT22;66726;52.388;9.986;2023-04-03T04:15:04;1.00;99.90
77582;DHT22;66726;52.388;9.986;2023-04-03T04:17:36;1.10;99.90
77582;DHT22;66726;52.388;9.986;2023-04-03T04:20:08;1.10;99.90
77582;DHT22;66726;52.388;9.986;2023-04-03T04:22:41;1.10;99.90
77582;DHT22;66726;52.388;9.986;2023-04-03T04:25:13;1.10;99.90
77582;DHT22;66726;52.388;9.986;2023-04-03T04:27:45;0.90;99.90
77582;DHT22;66726;52.388;9.986;2023-04-03T04:30:16;0.90;99.90
77582;DHT22;66726;52.388;9.986;2023-04-03T04:32:48;0.90;99.90
77582;DHT22;66726;52.388;9.986;2023-04-03T04:35:21;1.10;99.90
77582;DHT22;66726;52.388;9.986;2023-04-03T04:37:53;1.00;99.90
77582;DHT22;66726;52.388;9.986;2023-04-03T04:40:26;0.90;99.90
77582;DHT22;66726;52.388;9.986;2023-04-03T04:42:58;0.90;99.90
77582;DHT22;66726;52.388;9.986;2023-04-03T04:45:30;0.90;99.90
77582;DHT22;66726;52.388;9.986;2023-04-03T04:48:02;0.90;99.90
77582;DHT22;66726;52.388;9.986;2023-04-03T04:50:35;0.90;99.90
77582;DHT22;66726;52.388;9.986;2023-04-03T04:53:07;1.00;99.90
77582;DHT22;66726;52.388;9.986;2023-04-03T04:55:39;1.00;99.90
77582;DHT22;66726;52.388;9.986;2023-04-03T04:58:11;1.00;99.90
77582;DHT22;66726;52.388;9.986;2023-04-03T05:00:43;0.90;99.90
77582;DHT22;66726;52.388;9.986;2023-04-03T05:03:16;1.00;99.90
77582;DHT22;66726;52.388;9.986;2023-04-03T05:05:49;1.00;99.90
77582;DHT22;66726;52.388;9.986;2023-04-03T05:08:21;1.10;99.90
77582;DHT22;66726;52.388;9.986;2023-04-03T05:10:53;1.10;99.90
77582;DHT22;66726;52.388;9.986;2023-04-03T05:13:24;1.00;99.90
77582;DHT22;66726;52.388;9.986;2023-04-03T05:15:56;1.00;99.90
77582;DHT22;66726;52.388;9.986;2023-04-03T05:18:28;1.00;99.90
77582;DHT22;66726;52.388;9.986;2023-04-03T05:21:01;0.90;99.90
77582;DHT22;66726;52.388;9.986;2023-04-03T05:23:33;0.80;99.90
77582;DHT22;66726;52.388;9.986;2023-04-03T05:26:05;0.80;99.90
77582;DHT22;66726;52.388;9.986;2023-04-03T05:28:37;0.90;99.90
77582;DHT22;66726;52.388;9.986;2023-04-03T05:31:09;0.90;99.90
77582;DHT22;66726;52.388;9.986;2023-04-03T05:33:42;1.30;99.90
77582;DHT22;66726;52.388;9.986;2023-04-03T05:36:15;0.80;99.90
77582;DHT22;66726;52.388;9.986;2023-04-03T05:38:47;0.90;99.90
77582;DHT22;66726;52.388;9.986;2023-04-03T05:41:19;0.80;99.90
77582;DHT22;66726;52.388;9.986;2023-04-03T05:43:51;0.80;99.90
77582;DHT22;66726;52.388;9.986;2023-04-03T05:46:23;0.80;99.90
77582;DHT22;66726;52.388;9.986;2023-04-03T05:48:55;0.80;99.90
77582;DHT22;66726;52.388;9.986;2023-04-03T05:51:33;0.80;99.90
77582;DHT22;66726;52.388;9.986;2023-04-03T05:54:09;0.80;99.90
77582;DHT22;66726;52.388;9.986;2023-04-03T05:56:45;0.80;99.90
77582;DHT22;66726;52.388;9.986;2023-04-03T05:59:17;0.80;99.90
77582;DHT22;66726;52.388;9.986;2023-04-03T06:01:51;0.70;99.90
77582;DHT22;66726;52.388;9.986;2023-04-03T06:04:22;0.80;99.90
77582;DHT22;66726;52.388;9.986;2023-04-03T06:06:57;0.70;99.90
77582;DHT22;66726;52.388;9.986;2023-04-03T06:09:30;0.70;99.90
77582;DHT22;66726;52.388;9.986;2023-04-03T06:12:01;0.80;99.90
77582;DHT22;66726;52.388;9.986;2023-04-03T06:14:33;0.80;99.90
77582;DHT22;66726;52.388;9.986;2023-04-03T06:17:05;0.90;99.90
77582;DHT22;66726;52.388;9.986;2023-04-03T06:19:39;0.90;99.90
77582;DHT22;66726;52.388;9.986;2023-04-03T06:22:12;0.90;99.90
77582;DHT22;66726;52.388;9.986;2023-04-03T06:24:47;0.90;99.90
77582;DHT22;66726;52.388;9.986;2023-04-03T06:27:19;1.00;99.90
77582;DHT22;66726;52.388;9.986;2023-04-03T06:29:51;1.00;99.90
77582;DHT22;66726;52.388;9.986;2023-04-03T06:32:24;1.00;99.90
77582;DHT22;66726;52.388;9.986;2023-04-03T06:34:56;1.10;99.90
77582;DHT22;66726;52.388;9.986;2023-04-03T06:37:29;1.10;99.90
77582;DHT22;66726;52.388;9.986;2023-04-03T06:40:01;1.10;99.90
77582;DHT22;66726;52.388;9.986;2023-04-03T06:42:33;1.20;99.90
77582;DHT22;66726;52.388;9.986;2023-04-03T06:45:04;1.20;99.90
77582;DHT22;66726;52.388;9.986;2023-04-03T06:47:39;1.30;99.90
77582;DHT22;66726;52.388;9.986;2023-04-03T06:50:13;1.30;99.90
77582;DHT22;66726;52.388;9.986;2023-04-03T06:52:47;1.40;99.90
77582;DHT22;66726;52.388;9.986;2023-04-03T06:55:19;1.50;99.90
77582;DHT22;66726;52.388;9.986;2023-04-03T06:57:51;1.50;99.90
77582;DHT22;66726;52.388;9.986;2023-04-03T07:00:23;1.50;99.90
77582;DHT22;66726;52.388;9.986;2023-04-03T07:02:56;1.60;99.90
77582;DHT22;66726;52.388;9.986;2023-04-03T07:05:29;1.60;99.90
77582;DHT22;66726;52.388;9.986;2023-04-03T07:08:02;1.70;99.90
77582;DHT22;66726;52.388;9.986;2023-04-03T07:10:34;1.80;99.90
77582;DHT22;66726;52.388;9.986;2023-04-03T07:13:07;1.80;99.90
77582;DHT22;66726;52.388;9.986;2023-04-03T07:15:39;1.90;99.90
77582;DHT22;66726;52.388;9.986;2023-04-03T07:18:12;2.00;99.90
77582;DHT22;66726;52.388;9.986;2023-04-03T07:20:45;2.10;99.90
77582;DHT22;66726;52.388;9.986;2023-04-03T07:23:18;2.10;99.90
77582;DHT22;66726;52.388;9.986;2023-04-03T07:25:51;2.20;99.90
77582;DHT22;66726;52.388;9.986;2023-04-03T07:28:24;2.20;99.90
77582;DHT22;66726;52.388;9.986;2023-04-03T07:31:02;2.30;99.90
77582;DHT22;66726;52.388;9.986;2023-04-03T07:33:37;2.40;99.90
77582;DHT22;66726;52.388;9.986;2023-04-03T07:36:11;2.50;99.90
77582;DHT22;66726;52.388;9.986;2023-04-03T07:38:48;2.50;99.90
77582;DHT22;66726;52.388;9.986;2023-04-03T07:41:21;2.60;99.70
77582;DHT22;66726;52.388;9.986;2023-04-03T07:43:53;2.80;99.70
77582;DHT22;66726;52.388;9.986;2023-04-03T07:46:25;2.90;99.50
77582;DHT22;66726;52.388;9.986;2023-04-03T07:48:57;2.90;99.10
77582;DHT22;66726;52.388;9.986;2023-04-03T07:51:28;3.10;98.40
77582;DHT22;66726;52.388;9.986;2023-04-03T07:54:01;3.10;98.50
77582;DHT22;66726;52.388;9.986;2023-04-03T07:56:33;3.20;98.50
77582;DHT22;66726;52.388;9.986;2023-04-03T07:59:07;3.40;98.30
77582;DHT22;66726;52.388;9.986;2023-04-03T08:01:41;3.40;98.10
77582;DHT22;66726;52.388;9.986;2023-04-03T08:04:13;3.50;97.90
77582;DHT22;66726;52.388;9.986;2023-04-03T08:06:45;3.60;97.70
77582;DHT22;66726;52.388;9.986;2023-04-03T08:09:18;3.60;97.30
77582;DHT22;66726;52.388;9.986;2023-04-03T08:11:50;3.70;97.20
77582;DHT22;66726;52.388;9.986;2023-04-03T08:14:24;3.70;97.00
77582;DHT22;66726;52.388;9.986;2023-04-03T08:16:56;3.70;96.90
77582;DHT22;66726;52.388;9.986;2023-04-03T08:19:28;3.80;96.70
77582;DHT22;66726;52.388;9.986;2023-04-03T08:22:00;3.90;97.20
77582;DHT22;66726;52.388;9.986;2023-04-03T08:24:34;4.00;97.10
77582;DHT22;66726;52.388;9.986;2023-04-03T08:27:11;4.10;97.50
77582;DHT22;66726;52.388;9.986;2023-04-03T08:29:43;4.10;96.70
77582;DHT22;66726;52.388;9.986;2023-04-03T08:32:15;4.20;96.70
77582;DHT22;66726;52.388;9.986;2023-04-03T08:34:47;4.20;96.00
77582;DHT22;66726;52.388;9.986;2023-04-03T08:37:21;4.20;96.80
77582;DHT22;66726;52.388;9.986;2023-04-03T08:39:55;4.30;95.90
77582;DHT22;66726;52.388;9.986;2023-04-03T08:42:36;4.40;95.60
77582;DHT22;66726;52.388;9.986;2023-04-03T08:45:18;4.50;96.30
77582;DHT22;66726;52.388;9.986;2023-04-03T08:48:02;4.60;95.30
77582;DHT22;66726;52.388;9.986;2023-04-03T08:50:41;4.70;95.70
77582;DHT22;66726;52.388;9.986;2023-04-03T08:53:17;4.80;95.10
77582;DHT22;66726;52.388;9.986;2023-04-03T08:55:55;4.80;95.00
77582;DHT22;66726;52.388;9.986;2023-04-03T08:58:29;5.00;95.50
77582;DHT22;66726;52.388;9.986;2023-04-03T09:01:07;5.00;92.80
77582;DHT22;66726;52.388;9.986;2023-04-03T09:03:48;5.20;92.20
77582;DHT22;66726;52.388;9.986;2023-04-03T09:06:23;5.20;93.00
77582;DHT22;66726;52.388;9.986;2023-04-03T09:09:06;5.30;94.50
77582;DHT22;66726;52.388;9.986;2023-04-03T09:11:52;5.40;92.90
77582;DHT22;66726;52.388;9.986;2023-04-03T09:14:36;5.50;91.40
77582;DHT22;66726;52.388;9.986;2023-04-03T09:17:15;5.70;90.60
77582;DHT22;66726;52.388;9.986;2023-04-03T09:20:02;5.70;90.30
77582;DHT22;66726;52.388;9.986;2023-04-03T09:22:48;5.80;90.50
77582;DHT22;66726;52.388;9.986;2023-04-03T09:25:23;6.00;89.40
77582;DHT22;66726;52.388;9.986;2023-04-03T09:28:01;6.20;91.00
77582;DHT22;66726;52.388;9.986;2023-04-03T09:30:38;6.30;89.30
77582;DHT22;66726;52.388;9.986;2023-04-03T09:33:10;6.30;88.30
77582;DHT22;66726;52.388;9.986;2023-04-03T09:35:43;6.40;89.30
77582;DHT22;66726;52.388;9.986;2023-04-03T09:38:18;6.40;89.80
77582;DHT22;66726;52.388;9.986;2023-04-03T09:41:02;6.50;87.40
77582;DHT22;66726;52.388;9.986;2023-04-03T09:43:40;6.60;86.60
77582;DHT22;66726;52.388;9.986;2023-04-03T09:46:31;6.70;86.50
77582;DHT22;66726;52.388;9.986;2023-04-03T09:49:08;6.70;85.30
77582;DHT22;66726;52.388;9.986;2023-04-03T09:51:42;6.70;85.40
77582;DHT22;66726;52.388;9.986;2023-04-03T09:54:31;6.70;83.10
77582;DHT22;66726;52.388;9.986;2023-04-03T09:57:12;6.50;79.50
77582;DHT22;66726;52.388;9.986;2023-04-03T09:59:57;6.30;82.60
77582;DHT22;66726;52.388;9.986;2023-04-03T10:02:40;6.20;82.90
77582;DHT22;66726;52.388;9.986;2023-04-03T10:05:30;6.20;81.80
77582;DHT22;66726;52.388;9.986;2023-04-03T10:08:22;6.40;78.10
77582;DHT22;66726;52.388;9.986;2023-04-03T10:11:09;6.30;76.40
77582;DHT22;66726;52.388;9.986;2023-04-03T10:13:56;6.50;80.50
77582;DHT22;66726;52.388;9.986;2023-04-03T10:16:35;6.80;78.10
77582;DHT22;66726;52.388;9.986;2023-04-03T10:19:24;7.00;78.60
77582;DHT22;66726;52.388;9.986;2023-04-03T10:22:08;7.10;77.40
77582;DHT22;66726;52.388;9.986;2023-04-03T10:25:02;7.30;76.50
77582;DHT22;66726;52.388;9.986;2023-04-03T10:27:44;7.40;77.90
77582;DHT22;66726;52.388;9.986;2023-04-03T10:30:31;7.30;79.50
77582;DHT22;66726;52.388;9.986;2023-04-03T10:33:18;7.10;74.10
77582;DHT22;66726;52.388;9.986;2023-04-03T10:36:07;7.00;79.00
77582;DHT22;66726;52.388;9.986;2023-04-03T10:38:54;6.80;82.40
77582;DHT22;66726;52.388;9.986;2023-04-03T10:41:38;6.70;75.80
77582;DHT22;66726;52.388;9.986;2023-04-03T10:44:31;6.70;77.70
77582;DHT22;66726;52.388;9.986;2023-04-03T10:47:18;6.60;77.00
77582;DHT22;66726;52.388;9.986;2023-04-03T10:50:02;6.50;77.00
77582;DHT22;66726;52.388;9.986;2023-04-03T10:52:50;6.50;77.10
77582;DHT22;66726;52.388;9.986;2023-04-03T10:55:35;6.50;75.70
77582;DHT22;66726;52.388;9.986;2023-04-03T10:58:20;6.50;77.30
77582;DHT22;66726;52.388;9.986;2023-04-03T11:00:59;6.50;78.10
77582;DHT22;66726;52.388;9.986;2023-04-03T11:03:38;6.50;76.90
77582;DHT22;66726;52.388;9.986;2023-04-03T11:06:17;6.70;79.20
77582;DHT22;66726;52.388;9.986;2023-04-03T11:08:55;6.70;78.40
77582;DHT22;66726;52.388;9.986;2023-04-03T11:11:34;6.70;75.90
77582;DHT22;66726;52.388;9.986;2023-04-03T11:14:17;6.70;74.40
77582;DHT22;66726;52.388;9.986;2023-04-03T11:17:04;6.70;75.90
77582;DHT22;66726;52.388;9.986;2023-04-03T11:19:44;6.90;79.80
77582;DHT22;66726;52.388;9.986;2023-04-03T11:22:26;7.30;74.40
77582;DHT22;66726;52.388;9.986;2023-04-03T11:25:10;7.50;71.90
77582;DHT22;66726;52.388;9.986;2023-04-03T11:27:53;7.90;70.60
77582;DHT22;66726;52.388;9.986;2023-04-03T11:30:31;8.10;73.30
77582;DHT22;66726;52.388;9.986;2023-04-03T11:36:18;7.90;72.20
77582;DHT22;66726;52.388;9.986;2023-04-03T11:39:07;7.60;70.00
77582;DHT22;66726;52.388;9.986;2023-04-03T11:41:46;7.50;74.80
77582;DHT22;66726;52.388;9.986;2023-04-03T11:44:34;7.60;78.40
77582;DHT22;66726;52.388;9.986;2023-04-03T11:47:08;7.60;77.00
77582;DHT22;66726;52.388;9.986;2023-04-03T11:50:01;7.80;80.00
77582;DHT22;66726;52.388;9.986;2023-04-03T11:52:59;8.00;75.80
77582;DHT22;66726;52.388;9.986;2023-04-03T11:55:56;8.10;73.20
77582;DHT22;66726;52.388;9.986;2023-04-03T11:58:28;8.10;69.00
77582;DHT22;66726;52.388;9.986;2023-04-03T12:01:07;8.00;73.50
77582;DHT22;66726;52.388;9.986;2023-04-03T12:07:13;7.90;72.10
77582;DHT22;66726;52.388;9.986;2023-04-03T12:10:02;8.00;71.10
77582;DHT22;66726;52.388;9.986;2023-04-03T12:13:12;7.80;68.10
77582;DHT22;66726;52.388;9.986;2023-04-03T12:15:51;8.00;70.50
77582;DHT22;66726;52.388;9.986;2023-04-03T12:18:55;8.10;67.40
77582;DHT22;66726;52.388;9.986;2023-04-03T12:22:05;8.50;70.10
77582;DHT22;66726;52.388;9.986;2023-04-03T12:24:45;8.80;66.10
77582;DHT22;66726;52.388;9.986;2023-04-03T12:27:36;9.00;64.90
77582;DHT22;66726;52.388;9.986;2023-04-03T12:30:28;8.90;64.90
77582;DHT22;66726;52.388;9.986;2023-04-03T12:33:17;8.80;62.00
77582;DHT22;66726;52.388;9.986;2023-04-03T12:35:58;8.70;64.70
77582;DHT22;66726;52.388;9.986;2023-04-03T12:38:59;8.50;61.80
77582;DHT22;66726;52.388;9.986;2023-04-03T12:41:40;8.40;60.30
77582;DHT22;66726;52.388;9.986;2023-04-03T12:44:31;8.50;61.40
77582;DHT22;66726;52.388;9.986;2023-04-03T12:47:21;8.70;64.90
77582;DHT22;66726;52.388;9.986;2023-04-03T12:49:54;9.00;67.60
77582;DHT22;66726;52.388;9.986;2023-04-03T12:52:33;8.80;59.10
77582;DHT22;66726;52.388;9.986;2023-04-03T12:55:15;8.70;63.30
77582;DHT22;66726;52.388;9.986;2023-04-03T12:57:48;8.60;64.90
77582;DHT22;66726;52.388;9.986;2023-04-03T13:00:20;8.50;70.70
77582;DHT22;66726;52.388;9.986;2023-04-03T13:03:21;8.50;64.10
77582;DHT22;66726;52.388;9.986;2023-04-03T13:05:57;8.50;64.70
77582;DHT22;66726;52.388;9.986;2023-04-03T13:08:32;8.50;65.90
77582;DHT22;66726;52.388;9.986;2023-04-03T13:11:08;8.40;65.20
77582;DHT22;66726;52.388;9.986;2023-04-03T13:13:41;8.20;60.50
77582;DHT22;66726;52.388;9.986;2023-04-03T13:16:24;8.30;60.90
77582;DHT22;66726;52.388;9.986;2023-04-03T13:18:57;8.80;62.70
77582;DHT22;66726;52.388;9.986;2023-04-03T13:21:33;9.10;59.70
77582;DHT22;66726;52.388;9.986;2023-04-03T13:24:08;9.40;64.80
77582;DHT22;66726;52.388;9.986;2023-04-03T13:26:44;9.60;59.90
77582;DHT22;66726;52.388;9.986;2023-04-03T13:29:25;9.80;57.80
77582;DHT22;66726;52.388;9.986;2023-04-03T13:32:01;9.80;58.10
77582;DHT22;66726;52.388;9.986;2023-04-03T13:34:40;10.00;58.70
77582;DHT22;66726;52.388;9.986;2023-04-03T13:37:21;10.20;55.90
77582;DHT22;66726;52.388;9.986;2023-04-03T13:40:04;10.30;55.90
77582;DHT22;66726;52.388;9.986;2023-04-03T13:42:43;10.50;60.10
77582;DHT22;66726;52.388;9.986;2023-04-03T13:45:23;10.30;56.60
77582;DHT22;66726;52.388;9.986;2023-04-03T13:48:10;10.40;57.80
77582;DHT22;66726;52.388;9.986;2023-04-03T13:50:54;10.40;56.70
77582;DHT22;66726;52.388;9.986;2023-04-03T13:53:28;10.20;56.40
77582;DHT22;66726;52.388;9.986;2023-04-03T13:56:08;10.00;56.90
77582;DHT22;66726;52.388;9.986;2023-04-03T13:58:57;9.70;57.00
77582;DHT22;66726;52.388;9.986;2023-04-03T14:01:40;9.40;56.10
77582;DHT22;66726;52.388;9.986;2023-04-03T14:04:19;9.70;57.20
77582;DHT22;66726;52.388;9.986;2023-04-03T14:06:54;10.10;58.10
77582;DHT22;66726;52.388;9.986;2023-04-03T14:09:27;10.40;58.50
77582;DHT22;66726;52.388;9.986;2023-04-03T14:12:02;10.40;56.40
77582;DHT22;66726;52.388;9.986;2023-04-03T14:14:52;10.60;58.90
77582;DHT22;66726;52.388;9.986;2023-04-03T14:17:26;10.70;52.90
77582;DHT22;66726;52.388;9.986;2023-04-03T14:20:00;11.00;58.40
77582;DHT22;66726;52.388;9.986;2023-04-03T14:22:34;10.90;55.30
77582;DHT22;66726;52.388;9.986;2023-04-03T14:25:07;10.40;55.70
77582;DHT22;66726;52.388;9.986;2023-04-03T14:27:41;10.20;57.90
77582;DHT22;66726;52.388;9.986;2023-04-03T14:30:21;10.00;56.50
77582;DHT22;66726;52.388;9.986;2023-04-03T14:32:55;9.80;57.20
77582;DHT22;66726;52.388;9.986;2023-04-03T14:35:28;9.50;54.90
77582;DHT22;66726;52.388;9.986;2023-04-03T14:38:05;9.90;62.40
77582;DHT22;66726;52.388;9.986;2023-04-03T14:40:42;10.10;56.30
77582;DHT22;66726;52.388;9.986;2023-04-03T14:43:14;10.10;55.40
77582;DHT22;66726;52.388;9.986;2023-04-03T14:45:48;9.80;55.40
77582;DHT22;66726;52.388;9.986;2023-04-03T14:48:23;9.50;57.30
77582;DHT22;66726;52.388;9.986;2023-04-03T14:50:57;9.80;56.20
77582;DHT22;66726;52.388;9.986;2023-04-03T14:53:34;10.30;57.50
77582;DHT22;66726;52.388;9.986;2023-04-03T14:56:13;10.20;56.30
77582;DHT22;66726;52.388;9.986;2023-04-03T14:58:51;10.60;54.80
77582;DHT22;66726;52.388;9.986;2023-04-03T15:01:25;10.70;51.40
77582;DHT22;66726;52.388;9.986;2023-04-03T15:03:58;10.80;51.20
77582;DHT22;66726;52.388;9.986;2023-04-03T15:06:30;10.80;52.70
77582;DHT22;66726;52.388;9.986;2023-04-03T15:09:08;11.00;52.00
77582;DHT22;66726;52.388;9.986;2023-04-03T15:11:49;10.90;50.30
77582;DHT22;66726;52.388;9.986;2023-04-03T15:14:23;11.00;55.90
77582;DHT22;66726;52.388;9.986;2023-04-03T15:17:13;11.00;53.20
77582;DHT22;66726;52.388;9.986;2023-04-03T15:19:50;11.00;54.00
77582;DHT22;66726;52.388;9.986;2023-04-03T15:22:22;10.60;54.90
77582;DHT22;66726;52.388;9.986;2023-04-03T15:24:55;10.40;55.30
77582;DHT22;66726;52.388;9.986;2023-04-03T15:27:27;10.20;56.40
77582;DHT22;66726;52.388;9.986;2023-04-03T15:29:59;9.80;56.10
77582;DHT22;66726;52.388;9.986;2023-04-03T15:32:30;9.50;56.90
77582;DHT22;66726;52.388;9.986;2023-04-03T15:35:03;9.50;58.30
77582;DHT22;66726;52.388;9.986;2023-04-03T15:37:36;9.50;57.00
77582;DHT22;66726;52.388;9.986;2023-04-03T15:40:11;9.60;59.50
77582;DHT22;66726;52.388;9.986;2023-04-03T15:42:43;9.50;57.60
77582;DHT22;66726;52.388;9.986;2023-04-03T15:45:15;9.90;57.60
77582;DHT22;66726;52.388;9.986;2023-04-03T15:47:46;10.10;55.60
77582;DHT22;66726;52.388;9.986;2023-04-03T15:50:19;9.70;55.70
77582;DHT22;66726;52.388;9.986;2023-04-03T15:52:52;9.70;55.70
77582;DHT22;66726;52.388;9.986;2023-04-03T15:55:28;9.90;55.90
77582;DHT22;66726;52.388;9.986;2023-04-03T15:58:03;10.10;55.20
77582;DHT22;66726;52.388;9.986;2023-04-03T16:00:35;10.10;55.20
77582;DHT22;66726;52.388;9.986;2023-04-03T16:03:11;9.90;54.30
77582;DHT22;66726;52.388;9.986;2023-04-03T16:05:46;10.10;54.70
77582;DHT22;66726;52.388;9.986;2023-04-03T16:08:18;9.80;57.20
77582;DHT22;66726;52.388;9.986;2023-04-03T16:10:52;9.70;54.20
77582;DHT22;66726;52.388;9.986;2023-04-03T16:13:24;9.60;55.20
77582;DHT22;66726;52.388;9.986;2023-04-03T16:15:56;9.40;55.70
77582;DHT22;66726;52.388;9.986;2023-04-03T16:18:29;9.70;58.10
77582;DHT22;66726;52.388;9.986;2023-04-03T16:21:03;9.80;56.60
77582;DHT22;66726;52.388;9.986;2023-04-03T16:23:38;9.80;55.70
77582;DHT22;66726;52.388;9.986;2023-04-03T16:26:11;9.90;57.00
77582;DHT22;66726;52.388;9.986;2023-04-03T16:28:43;9.70;55.80
77582;DHT22;66726;52.388;9.986;2023-04-03T16:31:15;9.60;57.30
77582;DHT22;66726;52.388;9.986;2023-04-03T16:33:47;9.40;57.50
77582;DHT22;66726;52.388;9.986;2023-04-03T16:36:19;9.20;59.60
77582;DHT22;66726;52.388;9.986;2023-04-03T16:38:51;9.30;59.00
77582;DHT22;66726;52.388;9.986;2023-04-03T16:41:24;9.20;58.90
77582;DHT22;66726;52.388;9.986;2023-04-03T16:43:56;9.00;58.50
77582;DHT22;66726;52.388;9.986;2023-04-03T16:46:28;8.90;58.90
77582;DHT22;66726;52.388;9.986;2023-04-03T16:49:00;8.90;60.10